Pyatigorsk, Russia
Current Conditions -  °F | °C
As of 7:30 PM on Thursday 23 Oct 2014 (Local Time) from URMM Reporting Station
Smoke Smoke  
Wind Chill: 54°   Ceiling: 24000
Heat Index: 54°   Visibility: 2.1mi
Dew Point: 41°   Wind: 4mph
Humidity: 62%   Direction: 130°SE
Pressure: 29.94"   Gusts: NA
Location:  44.05°N, 43.06°E
Report Text: URMM 231630Z 13002MPS 3500 FU BKN240 12/05 Q1014 R12/CLRD70NOSIG RMK QFE732/0976
Loading
Personal Weather Stations






























Interactive Weather Map
Tropical Storm Tracking
New forecast layout! Learn more

10-Day Weather Forecast

Advertisements
Track Severe Weather on mobile